Startpagina
METAR-TAF:

METAR-TAF

Vliegvelden :

Curaçao International Airport

Curaçao, Nederlandse Antillen

breedte: 12-12N, lengte: 068-58W, hoogte: 9 m

Actueel weer

Dit bericht is 56 minuten geleden gemaakt, om 05:00 UTC
Wind 12 kt uit het oosten
Temperatuur 28°C
Vochtigheid 79%
Druk 1011 hPa
Zicht 10 km of meer
Verspreide wolken op 1700 ft

METAR: TNCC 240500Z 10012KT 9999 SCT017 28/24 Q1011 NOSIG

Tijdstip: 01:56 (05:56 UTC)

Verwachting

Dit bericht is 1 uur en het 56 minuten geleden gemaakt, om 04:00 UTC
Verwachting geldig van 24 om 06 UTC tot 25 om 06 UTC
Wind 13 kt uit het oosten
Zicht 10 km of meer
Verspreide wolken op 2000 ft
Kans 30% :
Tijdelijke
van 24 om 06 UTC tot 24 om 14 UTC
Zicht: 7000 m
Gebroken wolken op 1500 ft
lichte regenbuien

TAF: TNCC 240400Z 2406/2506 10013KT 9999 SCT020 PROB30 TEMPO 2406/2414 7000 -SHRA BKN015

Waarnemingen en weersverwachtingen van meer dan 4000 vliegvelden (METAR en TAF).

De beschikbare stations zijn de gele en rode punten op de kaart.

Ga met uw muis naar het station om de naam te zien.

Klik dan om waarnemingen en weersverwachtingen te zien.

kaart wijzigen: klik op de groene knoppen met een zwart kruis om in te zoomen, op de groene knop met een streepje om uit te zoomen of op de groene pijlen voor aangrenzende kaarten.


METAR-TAF: